Time;durP1;ratioP1;P1;durP2;ratioP2;P2;SDS_P1;SDS_P2;PMS_P1;PMS_P2;Temp;Humidity;BMP_temperature;BMP_pressure;BME280_temperature;BME280_humidity;BME280_pressure;Samples;Min_cycle;Max_cycle;Signal;HPM_P1;HPM_P2
2022/03/09 00:01:35;;;;;;;43.67;19.77;;;8.50;99.90;;;;;;5016002;28;20053;-59
2022/03/09 00:04:03;;;;;;;33.30;18.52;;;8.60;99.90;;;;;;5016180;28;20039;-59
2022/03/09 00:06:30;;;;;;;31.45;17.80;;;8.60;99.90;;;;;;5008050;28;20046;-61
2022/03/09 00:08:57;;;;;;;30.27;17.98;;;8.70;99.90;;;;;;5016910;28;20034;-57
2022/03/09 00:11:25;;;;;;;29.75;16.80;;;8.70;99.90;;;;;;5017112;28;20027;-59
2022/03/09 00:13:52;;;;;;;31.77;17.98;;;8.80;99.90;;;;;;5003177;28;20030;-60
2022/03/09 00:16:21;;;;;;;30.50;18.25;;;8.80;99.90;;;;;;5014878;28;20030;-58
2022/03/09 00:18:48;;;;;;;36.53;17.20;;;8.80;99.90;;;;;;4999549;28;20038;-58
2022/03/09 00:21:15;;;;;;;32.17;17.63;;;8.80;99.90;;;;;;5002413;28;20090;-59
2022/03/09 00:23:42;;;;;;;37.75;19.45;;;8.80;99.90;;;;;;5000802;28;20034;-58
2022/03/09 00:26:09;;;;;;;32.20;19.30;;;8.90;99.90;;;;;;5016063;28;20038;-58
2022/03/09 00:28:36;;;;;;;34.58;18.33;;;8.80;99.90;;;;;;5016460;28;20030;-58
2022/03/09 00:31:03;;;;;;;37.45;19.38;;;8.90;99.90;;;;;;5017153;28;20038;-57
2022/03/09 00:33:32;;;;;;;33.50;18.73;;;8.90;99.90;;;;;;5017358;28;20037;-59
2022/03/09 00:35:59;;;;;;;33.10;18.40;;;8.90;99.90;;;;;;5000232;28;20066;-60
2022/03/09 00:38:27;;;;;;;31.52;16.92;;;9.00;99.90;;;;;;5000457;28;20045;-58
2022/03/09 00:40:54;;;;;;;33.88;18.13;;;9.00;99.90;;;;;;4999079;28;20045;-59
2022/03/09 00:43:20;;;;;;;36.05;17.10;;;9.00;99.90;;;;;;5015888;28;20034;-59
2022/03/09 00:45:48;;;;;;;39.97;18.80;;;9.00;99.90;;;;;;5017592;28;20037;-58
2022/03/09 00:48:15;;;;;;;33.13;18.15;;;9.00;99.90;;;;;;5018010;28;20042;-58
2022/03/09 00:50:42;;;;;;;32.00;17.05;;;9.10;99.90;;;;;;4987752;28;20046;-59
2022/03/09 00:53:09;;;;;;;32.60;17.50;;;9.10;99.90;;;;;;5016675;28;20054;-59
2022/03/09 00:55:37;;;;;;;30.75;18.08;;;9.10;99.90;;;;;;5016516;28;20030;-57
2022/03/09 00:58:04;;;;;;;32.35;16.83;;;9.10;99.90;;;;;;5017689;28;20317;-58
2022/03/09 01:00:30;;;;;;;24.83;15.98;;;9.10;99.90;;;;;;5017252;28;20081;-60
2022/03/09 01:02:57;;;;;;;33.58;16.98;;;9.10;99.90;;;;;;5017181;28;20069;-58
2022/03/09 01:05:24;;;;;;;28.60;16.00;;;9.10;99.90;;;;;;5001275;28;20041;-58
2022/03/09 01:07:51;;;;;;;33.08;17.88;;;9.10;99.90;;;;;;5001335;28;20077;-58
2022/03/09 01:10:18;;;;;;;30.13;16.65;;;9.10;99.90;;;;;;5002240;28;20042;-59
2022/03/09 01:12:45;;;;;;;31.95;19.10;;;9.10;99.90;;;;;;5016534;28;20038;-59
2022/03/09 01:15:12;;;;;;;27.05;15.82;;;9.10;99.90;;;;;;4982914;28;20094;-60
2022/03/09 01:17:39;;;;;;;37.10;17.55;;;9.10;99.90;;;;;;5016293;28;20049;-58
2022/03/09 01:20:06;;;;;;;31.23;17.80;;;9.10;99.90;;;;;;5018547;28;20042;-59
2022/03/09 01:22:33;;;;;;;40.22;18.58;;;9.10;99.90;;;;;;5018135;28;20049;-59
2022/03/09 01:25:00;;;;;;;34.30;18.35;;;9.10;99.90;;;;;;5018617;28;20104;-59
2022/03/09 01:27:27;;;;;;;30.17;17.83;;;9.10;99.90;;;;;;5001628;28;20042;-60
2022/03/09 01:29:55;;;;;;;32.63;17.52;;;9.10;99.90;;;;;;5018481;28;20110;-59
2022/03/09 01:32:22;;;;;;;37.63;18.63;;;9.10;99.90;;;;;;5018173;28;20115;-59
2022/03/09 01:34:49;;;;;;;34.13;18.15;;;9.10;99.90;;;;;;5018185;28;20030;-60
2022/03/09 01:37:16;;;;;;;32.10;18.30;;;9.10;99.90;;;;;;5018124;28;20061;-60
2022/03/09 01:39:43;;;;;;;29.92;17.48;;;9.10;99.90;;;;;;5018432;28;20030;-60
2022/03/09 01:42:10;;;;;;;34.60;19.17;;;9.10;99.90;;;;;;5017659;28;20148;-59
2022/03/09 01:44:36;;;;;;;34.55;20.05;;;9.10;99.90;;;;;;5006881;28;20034;-60
2022/03/09 01:47:04;;;;;;;30.02;17.98;;;9.10;99.90;;;;;;5017751;28;20102;-59
2022/03/09 01:49:30;;;;;;;33.42;18.17;;;9.10;99.90;;;;;;5017550;28;20030;-61
2022/03/09 01:51:58;;;;;;;32.58;18.15;;;9.20;99.90;;;;;;5017857;28;20046;-59
2022/03/09 01:54:26;;;;;;;33.50;18.02;;;9.10;99.90;;;;;;5001276;28;20088;-60
2022/03/09 01:56:55;;;;;;;33.10;16.45;;;9.20;99.90;;;;;;5001632;28;20069;-60
2022/03/09 01:59:21;;;;;;;31.55;17.25;;;9.20;99.90;;;;;;5017550;28;20030;-60
2022/03/09 02:01:48;;;;;;;28.25;16.85;;;9.20;99.90;;;;;;5017718;28;20034;-60
2022/03/09 02:04:16;;;;;;;27.05;15.15;;;9.20;99.90;;;;;;5000933;28;20074;-60
2022/03/09 02:06:43;;;;;;;27.20;15.68;;;9.20;99.90;;;;;;4981782;28;20043;-59
2022/03/09 02:11:58;;;;;;;32.60;17.83;;;9.20;99.90;;;;;;5001419;28;20241;-58
2022/03/09 02:14:32;;;;;;;32.60;17.88;;;9.20;99.90;;;;;;5017417;28;20074;-60
2022/03/09 02:17:06;;;;;;;32.63;15.48;;;9.30;99.90;;;;;;5017474;28;20038;-60
2022/03/09 02:19:34;;;;;;;28.33;16.25;;;9.30;99.90;;;;;;5000790;28;20038;-59
2022/03/09 02:22:04;;;;;;;34.38;16.63;;;9.30;99.90;;;;;;5017317;28;20096;-59
2022/03/09 02:24:32;;;;;;;30.10;16.08;;;9.30;99.90;;;;;;5017132;28;20026;-60
2022/03/09 02:26:59;;;;;;;27.45;16.08;;;9.30;99.90;;;;;;5017664;28;20034;-60
2022/03/09 02:29:26;;;;;;;27.60;15.13;;;9.30;99.90;;;;;;5000741;28;20041;-60
2022/03/09 02:31:53;;;;;;;31.00;14.52;;;9.30;99.90;;;;;;5017504;28;20073;-60
2022/03/09 02:34:19;;;;;;;22.70;14.73;;;9.40;99.90;;;;;;5000466;28;20069;-56
2022/03/09 02:36:47;;;;;;;22.35;13.18;;;9.40;99.90;;;;;;5017399;28;20023;-60
2022/03/09 02:39:14;;;;;;;25.02;13.35;;;9.40;99.90;;;;;;5017129;28;20022;-58
2022/03/09 02:41:40;;;;;;;24.55;13.73;;;9.40;99.90;;;;;;5017160;28;20027;-59
2022/03/09 02:44:07;;;;;;;25.02;12.70;;;9.40;99.90;;;;;;4669137;28;10000725;-59
2022/03/09 02:46:34;;;;;;;25.70;13.27;;;9.40;99.90;;;;;;5000403;28;20050;-59
2022/03/09 02:49:01;;;;;;;23.90;12.82;;;9.40;99.90;;;;;;5017234;28;20041;-59
2022/03/09 02:51:28;;;;;;;18.58;11.10;;;9.40;99.90;;;;;;5017297;28;20038;-59
2022/03/09 02:53:55;;;;;;;21.20;12.70;;;9.50;99.90;;;;;;5000456;28;20070;-58
2022/03/09 02:56:21;;;;;;;20.80;12.55;;;9.50;99.90;;;;;;5000245;28;20030;-61
2022/03/09 02:58:48;;;;;;;19.55;11.65;;;9.50;99.90;;;;;;5017274;28;20103;-59
2022/03/09 03:01:15;;;;;;;18.60;10.40;;;9.50;99.90;;;;;;5016843;28;20066;-59
2022/03/09 03:03:43;;;;;;;22.05;11.82;;;9.50;99.90;;;;;;5019772;28;20034;-59
2022/03/09 03:06:10;;;;;;;20.23;11.13;;;9.50;99.90;;;;;;5020762;28;20042;-59
2022/03/09 03:08:40;;;;;;;21.65;13.25;;;9.50;99.90;;;;;;5021327;28;20030;-59
2022/03/09 03:11:10;;;;;;;14.15;9.30;;;9.50;99.90;;;;;;5020801;28;20039;-60
2022/03/09 03:13:40;;;;;;;20.08;11.07;;;9.60;99.90;;;;;;5004356;28;20026;-59
2022/03/09 03:16:07;;;;;;;17.77;10.35;;;9.50;99.90;;;;;;5020499;28;20065;-59
2022/03/09 03:18:35;;;;;;;20.38;10.48;;;9.50;99.90;;;;;;5020953;28;20022;-59
2022/03/09 03:21:02;;;;;;;20.05;9.98;;;9.60;99.90;;;;;;5009031;28;20161;-59
2022/03/09 03:23:30;;;;;;;20.80;10.43;;;9.50;99.90;;;;;;5020857;28;20038;-62
2022/03/09 03:25:57;;;;;;;17.52;9.40;;;9.50;99.90;;;;;;5020338;28;20042;-60
2022/03/09 03:28:24;;;;;;;15.02;10.55;;;9.50;99.90;;;;;;5020832;28;20046;-59
2022/03/09 03:30:51;;;;;;;18.73;10.30;;;9.50;99.90;;;;;;5020452;28;20030;-61
2022/03/09 03:33:18;;;;;;;22.52;9.43;;;9.60;99.90;;;;;;5020760;28;20065;-59
2022/03/09 03:35:45;;;;;;;13.77;9.40;;;9.60;99.90;;;;;;5034807;28;20038;-60
2022/03/09 03:38:12;;;;;;;15.95;10.00;;;9.60;99.90;;;;;;5003854;28;20022;-60
2022/03/09 03:40:39;;;;;;;14.98;8.55;;;9.60;99.90;;;;;;5020375;28;20116;-59
2022/03/09 03:43:06;;;;;;;15.10;9.05;;;9.60;99.90;;;;;;4998755;28;20027;-59
2022/03/09 03:45:33;;;;;;;19.88;8.90;;;9.50;99.90;;;;;;5001392;28;20135;-59
2022/03/09 03:47:59;;;;;;;14.93;8.98;;;9.50;99.90;;;;;;5019334;28;20037;-59
2022/03/09 03:50:27;;;;;;;14.63;9.52;;;9.60;99.90;;;;;;5036266;28;20069;-60
2022/03/09 03:52:55;;;;;;;15.48;8.57;;;9.60;99.90;;;;;;5013140;28;20050;-59
2022/03/09 03:55:22;;;;;;;15.65;7.97;;;9.60;99.90;;;;;;5020385;28;20146;-59
2022/03/09 03:57:49;;;;;;;13.23;8.35;;;9.60;99.90;;;;;;5020067;28;20054;-60
2022/03/09 04:00:16;;;;;;;17.55;8.80;;;9.60;99.90;;;;;;5020053;28;20042;-59
2022/03/09 04:02:43;;;;;;;15.57;8.05;;;9.60;99.90;;;;;;5017729;28;20034;-60
2022/03/09 04:05:10;;;;;;;23.65;8.20;;;9.60;99.90;;;;;;5018194;28;20034;-59
2022/03/09 04:07:36;;;;;;;15.02;7.85;;;9.60;99.90;;;;;;5018882;28;20023;-59
2022/03/09 04:10:04;;;;;;;17.65;9.30;;;9.60;99.90;;;;;;5024602;28;20038;-60
2022/03/09 04:12:30;;;;;;;19.38;8.52;;;9.60;99.90;;;;;;4999501;28;20042;-58
2022/03/09 04:14:57;;;;;;;19.27;7.30;;;9.60;99.90;;;;;;5014029;28;20045;-60
2022/03/09 04:17:24;;;;;;;15.38;8.18;;;9.60;99.90;;;;;;5018854;28;20026;-59
2022/03/09 04:19:51;;;;;;;13.68;7.93;;;9.50;99.90;;;;;;5018925;28;20054;-59
2022/03/09 04:22:17;;;;;;;15.48;7.70;;;9.50;99.90;;;;;;5018579;28;20046;-59
2022/03/09 04:24:44;;;;;;;16.88;8.90;;;9.50;99.90;;;;;;5018704;28;20053;-59
2022/03/09 04:27:11;;;;;;;19.15;9.35;;;9.40;99.90;;;;;;5018629;28;20031;-58
2022/03/09 04:29:38;;;;;;;18.55;8.73;;;9.40;99.90;;;;;;5018723;28;20085;-59
2022/03/09 04:32:07;;;;;;;17.10;9.18;;;9.50;99.90;;;;;;5018792;28;20042;-59
2022/03/09 04:34:33;;;;;;;19.45;9.80;;;9.50;99.90;;;;;;5017484;28;20099;-61
2022/03/09 04:37:00;;;;;;;15.23;9.65;;;9.50;99.90;;;;;;5018835;28;20062;-59
2022/03/09 04:39:27;;;;;;;19.50;9.55;;;9.50;99.90;;;;;;5006955;28;20038;-59
2022/03/09 04:41:54;;;;;;;19.05;8.95;;;9.50;99.90;;;;;;5001759;28;20042;-60
2022/03/09 04:44:20;;;;;;;18.25;9.63;;;9.50;99.90;;;;;;5024064;28;20034;-60
2022/03/09 04:46:47;;;;;;;18.00;9.80;;;9.50;99.90;;;;;;5018618;28;20057;-57
2022/03/09 04:49:14;;;;;;;17.52;8.93;;;9.50;99.90;;;;;;5018227;28;20034;-59
2022/03/09 04:51:41;;;;;;;14.63;8.50;;;9.50;99.90;;;;;;5018014;28;20042;-59
2022/03/09 04:54:09;;;;;;;14.32;8.25;;;9.50;99.90;;;;;;5018170;28;20101;-60
2022/03/09 04:56:36;;;;;;;20.50;8.65;;;9.50;99.90;;;;;;5018266;28;20065;-61
2022/03/09 04:59:03;;;;;;;20.88;8.50;;;9.50;99.90;;;;;;5018066;28;20329;-59
2022/03/09 05:01:30;;;;;;;24.45;8.38;;;9.50;99.90;;;;;;5018452;28;20034;-58
2022/03/09 05:03:57;;;;;;;19.85;7.88;;;9.50;99.90;;;;;;5017789;28;20022;-60
2022/03/09 05:06:23;;;;;;;16.92;8.57;;;9.50;99.90;;;;;;5028188;28;20253;-60
2022/03/09 05:08:50;;;;;;;23.42;10.93;;;9.50;99.90;;;;;;5001033;28;20062;-60
2022/03/09 05:11:17;;;;;;;16.88;7.45;;;9.50;99.90;;;;;;5018004;28;20034;-60
2022/03/09 05:13:44;;;;;;;16.60;7.43;;;9.50;99.90;;;;;;5017440;28;20042;-57
2022/03/09 05:16:11;;;;;;;12.55;6.35;;;9.50;99.90;;;;;;5001004;28;20126;-60
2022/03/09 05:18:40;;;;;;;14.30;6.47;;;9.40;99.90;;;;;;5017863;28;20126;-59
2022/03/09 05:21:08;;;;;;;13.25;6.45;;;9.40;99.90;;;;;;5017518;28;20046;-59
2022/03/09 05:23:35;;;;;;;18.80;6.15;;;9.40;99.90;;;;;;5017876;28;20045;-58
2022/03/09 05:26:02;;;;;;;12.93;6.40;;;9.30;99.90;;;;;;5017010;28;20046;-60
2022/03/09 05:28:29;;;;;;;14.35;6.72;;;9.30;99.90;;;;;;5001393;28;20046;-59
2022/03/09 05:30:56;;;;;;;14.88;5.45;;;9.40;99.90;;;;;;5017523;28;20038;-58
2022/03/09 05:33:23;;;;;;;16.95;6.10;;;9.40;99.90;;;;;;5017499;28;20031;-58
2022/03/09 05:35:49;;;;;;;13.85;5.82;;;9.40;99.90;;;;;;5017270;28;20050;-59
2022/03/09 05:38:16;;;;;;;13.52;5.55;;;9.40;99.90;;;;;;5017552;28;20041;-58
2022/03/09 05:40:43;;;;;;;17.13;4.82;;;9.40;99.90;;;;;;5017312;28;20030;-58
2022/03/09 05:43:10;;;;;;;15.80;5.07;;;9.40;99.90;;;;;;5017190;28;20065;-57
2022/03/09 05:45:37;;;;;;;12.15;5.53;;;9.40;99.90;;;;;;5000038;28;20078;-58
2022/03/09 05:48:04;;;;;;;17.63;5.80;;;9.40;99.90;;;;;;5000397;28;20042;-58
2022/03/09 05:50:31;;;;;;;14.32;4.30;;;9.30;99.90;;;;;;5016771;28;20026;-58
2022/03/09 05:53:02;;;;;;;13.88;5.47;;;9.30;99.90;;;;;;5026769;28;20046;-58
2022/03/09 05:55:28;;;;;;;16.95;6.13;;;9.40;99.90;;;;;;5000160;28;20173;-60
2022/03/09 05:57:56;;;;;;;18.52;4.53;;;9.40;99.90;;;;;;5021714;28;20069;-59
2022/03/09 06:00:23;;;;;;;10.85;4.00;;;9.40;99.90;;;;;;5016901;28;20065;-59
2022/03/09 06:02:49;;;;;;;17.58;4.50;;;9.30;99.90;;;;;;5013344;28;20030;-59
2022/03/09 06:05:18;;;;;;;17.98;4.78;;;9.40;99.90;;;;;;5016686;28;20077;-58
2022/03/09 06:07:48;;;;;;;21.58;4.65;;;9.40;99.90;;;;;;5017090;28;20030;-57
2022/03/09 06:10:15;;;;;;;20.17;5.13;;;9.30;99.90;;;;;;4984675;28;20045;-59
2022/03/09 06:12:42;;;;;;;17.55;4.63;;;9.30;99.90;;;;;;5015199;28;20053;-59
2022/03/09 06:15:09;;;;;;;13.38;4.20;;;9.30;99.90;;;;;;4997377;28;20053;-60
2022/03/09 06:17:46;;;;;;;14.65;4.30;;;9.30;99.90;;;;;;4997084;28;20022;-59
2022/03/09 06:20:18;;;;;;;20.63;4.78;;;9.40;99.90;;;;;;4980364;28;20062;-59
2022/03/09 06:22:45;;;;;;;18.00;5.05;;;9.40;99.90;;;;;;4997238;28;20027;-60
2022/03/09 06:25:14;;;;;;;15.75;4.72;;;9.40;99.90;;;;;;5016701;28;20030;-59
2022/03/09 06:27:51;;;;;;;13.60;4.60;;;9.30;99.90;;;;;;5016511;28;20073;-61
2022/03/09 06:30:25;;;;;;;21.60;5.22;;;9.40;99.90;;;;;;5016600;28;20046;-59
2022/03/09 06:32:54;;;;;;;22.48;5.18;;;9.30;99.90;;;;;;5015758;28;20090;-60
2022/03/09 06:35:23;;;;;;;19.65;4.57;;;9.30;99.90;;;;;;5015923;28;20065;-59
2022/03/09 06:37:49;;;;;;;20.67;5.00;;;9.30;99.90;;;;;;5015329;28;20049;-59
2022/03/09 06:40:16;;;;;;;15.93;5.72;;;9.30;99.90;;;;;;5006416;28;20027;-57
2022/03/09 06:42:43;;;;;;;30.88;7.35;;;9.30;99.90;;;;;;5014778;28;20022;-58
2022/03/09 06:45:10;;;;;;;19.42;4.88;;;9.40;99.90;;;;;;5016784;28;20026;-58
2022/03/09 06:47:38;;;;;;;11.65;4.13;;;9.40;99.90;;;;;;5016082;28;20023;-61
2022/03/09 06:50:07;;;;;;;20.85;5.85;;;9.40;99.90;;;;;;5013907;28;20038;-59
2022/03/09 06:52:34;;;;;;;9.20;4.28;;;9.40;99.90;;;;;;4996411;28;20049;-58
2022/03/09 06:55:07;;;;;;;20.08;5.25;;;9.40;99.90;;;;;;4991634;28;20050;-56
2022/03/09 06:57:34;;;;;;;22.40;4.50;;;9.40;99.90;;;;;;5016728;28;20031;-59
2022/03/09 07:00:08;;;;;;;18.80;5.47;;;9.40;99.90;;;;;;5016195;28;20061;-60
2022/03/09 07:02:35;;;;;;;19.95;5.03;;;9.40;99.90;;;;;;5008439;28;20042;-59
2022/03/09 07:05:02;;;;;;;16.13;5.05;;;9.40;99.90;;;;;;5016431;28;20046;-59
2022/03/09 07:07:28;;;;;;;18.65;5.47;;;9.50;99.90;;;;;;5032187;28;20042;-58
2022/03/09 07:09:55;;;;;;;27.25;5.30;;;9.40;99.90;;;;;;5003611;28;20063;-59
2022/03/09 07:12:22;;;;;;;15.07;5.28;;;9.40;99.90;;;;;;5016486;28;20030;-60
2022/03/09 07:14:49;;;;;;;24.85;7.18;;;9.40;99.90;;;;;;5015635;28;20049;-59
2022/03/09 07:17:16;;;;;;;14.43;5.00;;;9.40;99.90;;;;;;5015665;28;20031;-60
2022/03/09 07:19:43;;;;;;;21.02;5.65;;;9.40;99.90;;;;;;5016063;28;20031;-59
2022/03/09 07:22:10;;;;;;;26.30;6.07;;;9.40;99.90;;;;;;5016220;28;20038;-58
2022/03/09 07:24:36;;;;;;;26.13;6.18;;;9.50;99.90;;;;;;4999084;28;20070;-59
2022/03/09 07:27:03;;;;;;;21.65;5.40;;;9.50;99.90;;;;;;5016221;28;20066;-56
2022/03/09 07:29:30;;;;;;;19.75;4.72;;;9.50;99.90;;;;;;5027534;28;20034;-59
2022/03/09 07:31:57;;;;;;;18.08;5.45;;;9.50;99.90;;;;;;5016273;28;20058;-59
2022/03/09 07:34:26;;;;;;;20.25;5.38;;;9.50;99.90;;;;;;4999039;28;20065;-59
2022/03/09 07:36:58;;;;;;;16.70;5.47;;;9.60;99.90;;;;;;4998578;28;20038;-58
2022/03/09 07:39:28;;;;;;;29.35;5.68;;;9.60;99.90;;;;;;4983517;28;20038;-59
2022/03/09 07:41:55;;;;;;;17.77;5.10;;;9.60;99.90;;;;;;5022878;28;20030;-59
2022/03/09 07:44:22;;;;;;;18.50;4.35;;;9.60;99.90;;;;;;4997543;28;20112;-60
2022/03/09 07:46:49;;;;;;;20.20;5.60;;;9.60;99.90;;;;;;5012219;28;20049;-58
2022/03/09 07:49:16;;;;;;;15.07;4.63;;;9.70;99.90;;;;;;5014803;28;20043;-57
2022/03/09 07:51:44;;;;;;;34.20;6.22;;;9.70;99.90;;;;;;5000166;28;20031;-59
2022/03/09 07:54:11;;;;;;;21.35;4.70;;;9.70;99.90;;;;;;4983882;28;20043;-58
2022/03/09 07:56:38;;;;;;;21.95;4.93;;;9.70;99.90;;;;;;5021356;28;20089;-59
2022/03/09 07:59:05;;;;;;;21.73;4.78;;;9.80;99.90;;;;;;4999958;28;20026;-59
2022/03/09 08:01:32;;;;;;;20.05;4.10;;;9.80;99.90;;;;;;5003256;28;20027;-60
2022/03/09 08:03:59;;;;;;;17.77;6.80;;;9.70;99.90;;;;;;5016850;28;20037;-60
2022/03/09 08:06:26;;;;;;;27.60;3.40;;;9.80;99.90;;;;;;4982846;28;20046;-58
2022/03/09 08:08:53;;;;;;;14.80;4.57;;;9.80;99.90;;;;;;5017640;28;20037;-59
2022/03/09 08:11:20;;;;;;;14.77;3.38;;;9.80;99.90;;;;;;4992405;28;20027;-59
2022/03/09 08:13:48;;;;;;;15.93;4.45;;;9.80;99.90;;;;;;5001671;28;20034;-58
2022/03/09 08:16:16;;;;;;;17.90;4.13;;;9.90;99.90;;;;;;5018356;28;20073;-60
2022/03/09 08:18:43;;;;;;;14.45;3.97;;;9.90;99.90;;;;;;5018899;28;20034;-58
2022/03/09 08:21:13;;;;;;;14.38;3.20;;;10.00;99.90;;;;;;5028638;28;20065;-59
2022/03/09 08:23:41;;;;;;;19.27;3.70;;;10.00;99.90;;;;;;5022991;28;20034;-60
2022/03/09 08:26:08;;;;;;;21.73;4.68;;;10.10;99.90;;;;;;5000687;28;20034;-59
2022/03/09 08:28:35;;;;;;;23.40;4.35;;;10.10;99.90;;;;;;5019008;28;20090;-59
2022/03/09 08:31:02;;;;;;;18.63;4.20;;;10.10;99.90;;;;;;5018347;28;20042;-58
2022/03/09 08:33:29;;;;;;;24.30;4.15;;;10.20;99.90;;;;;;5018757;28;20097;-57
2022/03/09 08:35:56;;;;;;;20.10;3.50;;;10.20;99.90;;;;;;5001828;28;20050;-59
2022/03/09 08:38:23;;;;;;;19.80;3.53;;;10.20;99.90;;;;;;5023549;28;20167;-59
2022/03/09 08:40:50;;;;;;;18.83;3.88;;;10.30;99.90;;;;;;5017769;28;20049;-57
2022/03/09 08:43:17;;;;;;;23.33;3.78;;;10.30;99.90;;;;;;5018559;28;20109;-59
2022/03/09 08:45:45;;;;;;;16.85;3.75;;;10.30;99.90;;;;;;5000338;28;20038;-57
2022/03/09 08:48:15;;;;;;;22.10;3.83;;;10.30;99.90;;;;;;5029420;28;20030;-57
2022/03/09 08:50:42;;;;;;;21.92;4.05;;;10.30;99.90;;;;;;5002036;28;20037;-60
2022/03/09 08:53:09;;;;;;;15.45;3.88;;;10.30;99.90;;;;;;5017590;28;20065;-59
2022/03/09 08:55:36;;;;;;;16.13;3.33;;;10.30;99.90;;;;;;5034162;28;20038;-61
2022/03/09 08:58:03;;;;;;;12.90;3.55;;;10.30;99.90;;;;;;5017944;28;20054;-60
2022/03/09 09:00:30;;;;;;;21.83;4.20;;;10.30;99.90;;;;;;5017918;28;20026;-58
2022/03/09 09:02:57;;;;;;;14.52;3.47;;;10.30;99.90;;;;;;5001787;28;20062;-58
2022/03/09 09:05:25;;;;;;;18.00;3.83;;;10.40;99.90;;;;;;5001815;28;20042;-60
2022/03/09 09:07:52;;;;;;;17.85;3.63;;;10.40;99.90;;;;;;5006585;28;20049;-58
2022/03/09 09:10:19;;;;;;;18.77;4.07;;;10.50;99.90;;;;;;5001643;28;20057;-58
2022/03/09 09:12:50;;;;;;;18.27;3.85;;;10.50;99.90;;;;;;5017992;28;20050;-58
2022/03/09 09:15:17;;;;;;;25.48;4.32;;;10.50;99.90;;;;;;5003639;28;20077;-57
2022/03/09 09:17:45;;;;;;;15.00;4.07;;;10.60;99.90;;;;;;4989357;28;20034;-56
2022/03/09 09:20:32;;;;;;;25.80;3.30;;;10.70;99.90;;;;;;5001615;28;20046;-59
2022/03/09 09:23:00;;;;;;;10.18;2.65;;;10.70;99.90;;;;;;5000869;28;20073;-61
2022/03/09 09:25:34;;;;;;;15.70;3.05;;;10.60;99.90;;;;;;5002396;28;20046;-59
2022/03/09 09:28:01;;;;;;;14.13;3.38;;;10.60;99.90;;;;;;5017716;28;20139;-59
2022/03/09 09:30:30;;;;;;;12.38;3.65;;;10.60;99.90;;;;;;5010503;28;20058;-57
2022/03/09 09:32:58;;;;;;;27.58;4.57;;;10.80;99.90;;;;;;4985756;28;20050;-59
2022/03/09 09:35:25;;;;;;;18.40;4.38;;;11.00;99.90;;;;;;5027268;28;20034;-57
2022/03/09 09:37:52;;;;;;;19.48;3.85;;;11.00;99.90;;;;;;5001012;28;20039;-59
2022/03/09 09:40:19;;;;;;;14.98;3.63;;;11.10;99.90;;;;;;5018041;28;20038;-59
2022/03/09 09:42:47;;;;;;;25.13;3.60;;;11.00;99.90;;;;;;4985460;28;20034;-59
2022/03/09 09:45:20;;;;;;;20.55;4.35;;;11.00;99.90;;;;;;5011433;28;20043;-61
2022/03/09 09:47:49;;;;;;;16.38;3.70;;;11.10;99.90;;;;;;4983945;28;20050;-59
2022/03/09 09:50:17;;;;;;;15.70;3.53;;;11.00;99.90;;;;;;5028736;28;20050;-58
2022/03/09 09:52:44;;;;;;;16.63;2.70;;;11.00;99.90;;;;;;5017846;28;20062;-58
2022/03/09 09:55:12;;;;;;;11.70;3.13;;;10.90;99.90;;;;;;5005810;28;20034;-59
2022/03/09 09:57:39;;;;;;;13.55;2.75;;;10.80;99.90;;;;;;5017526;28;20123;-59
2022/03/09 10:00:07;;;;;;;14.52;3.58;;;10.90;99.90;;;;;;5017275;28;20045;-58
2022/03/09 10:02:39;;;;;;;18.02;3.50;;;11.00;99.90;;;;;;4997545;28;20119;-59
2022/03/09 10:05:07;;;;;;;39.83;4.90;;;11.10;99.90;;;;;;4997154;28;20034;-59
2022/03/09 10:07:42;;;;;;;15.68;4.05;;;11.20;99.90;;;;;;5017465;28;20058;-58
2022/03/09 10:10:19;;;;;;;24.42;5.38;;;11.20;99.90;;;;;;5000504;28;20037;-59
2022/03/09 10:12:46;;;;;;;15.73;3.53;;;11.30;99.90;;;;;;4999834;28;20125;-55
2022/03/09 10:15:15;;;;;;;17.35;2.80;;;11.40;99.90;;;;;;5015678;28;20030;-60
2022/03/09 10:17:42;;;;;;;13.57;2.42;;;11.40;99.90;;;;;;5000375;28;20027;-60
2022/03/09 10:20:10;;;;;;;21.92;3.85;;;11.40;99.90;;;;;;5005139;28;20030;-59
2022/03/09 10:22:41;;;;;;;18.30;3.25;;;11.30;99.90;;;;;;5016398;28;20058;-58
2022/03/09 10:25:20;;;;;;;10.65;2.15;;;11.30;99.90;;;;;;5016986;28;20044;-60
2022/03/09 10:27:54;;;;;;;27.45;5.07;;;11.30;99.90;;;;;;5016950;28;20038;-58
2022/03/09 10:30:30;;;;;;;21.23;2.60;;;11.40;99.90;;;;;;5001030;28;20034;-60
2022/03/09 10:32:59;;;;;;;20.05;2.97;;;11.40;99.90;;;;;;4989010;28;20026;-59
2022/03/09 10:35:31;;;;;;;14.68;2.67;;;11.50;99.90;;;;;;5016634;28;20042;-58
2022/03/09 10:38:00;;;;;;;18.67;2.78;;;11.60;99.90;;;;;;5017005;28;20085;-58
2022/03/09 10:40:28;;;;;;;17.35;3.28;;;11.60;99.90;;;;;;5016133;28;20062;-57
2022/03/09 10:43:16;;;;;;;22.15;2.85;;;11.70;99.90;;;;;;5015303;28;20038;-58
2022/03/09 10:46:02;;;;;;;15.13;4.18;;;11.70;99.90;;;;;;4999513;28;20038;-58
2022/03/09 10:49:01;;;;;;;20.45;4.78;;;11.80;99.90;;;;;;5016493;28;20098;-58
2022/03/09 10:51:28;;;;;;;15.45;3.28;;;11.80;99.90;;;;;;4973153;28;20038;-59
2022/03/09 10:53:55;;;;;;;11.70;2.50;;;11.90;99.90;;;;;;5016849;28;20054;-57
2022/03/09 10:56:22;;;;;;;18.75;2.67;;;11.90;99.90;;;;;;5016497;28;20061;-59
2022/03/09 10:58:49;;;;;;;15.45;4.55;;;12.00;99.90;;;;;;5016686;28;20054;-56
2022/03/09 11:01:20;;;;;;;18.38;2.83;;;12.00;99.90;;;;;;5016268;28;20049;-58
2022/03/09 11:03:47;;;;;;;15.63;3.50;;;12.00;99.90;;;;;;5015978;28;20038;-59
2022/03/09 11:06:17;;;;;;;15.73;3.60;;;11.90;99.90;;;;;;5016029;28;20034;-58
2022/03/09 11:08:44;;;;;;;14.65;2.92;;;11.90;99.90;;;;;;5016423;28;20038;-59
2022/03/09 11:11:14;;;;;;;14.07;2.60;;;11.80;99.90;;;;;;4999587;28;20054;-60
2022/03/09 11:13:41;;;;;;;22.83;2.97;;;11.80;99.90;;;;;;5024906;28;20090;-57
2022/03/09 11:16:08;;;;;;;16.55;2.80;;;11.80;99.90;;;;;;5016268;28;20022;-59
2022/03/09 11:18:36;;;;;;;14.70;3.33;;;11.80;99.90;;;;;;4999579;28;20062;-59
2022/03/09 11:21:05;;;;;;;16.27;4.25;;;11.80;99.90;;;;;;4999305;28;20046;-59
2022/03/09 11:23:33;;;;;;;15.68;3.75;;;11.90;99.90;;;;;;5008251;28;20070;-59
2022/03/09 11:26:28;;;;;;;9.63;2.20;;;12.00;99.90;;;;;;5020215;28;20069;-59
2022/03/09 11:28:59;;;;;;;13.65;2.80;;;12.00;99.90;;;;;;5019567;28;20027;-58
2022/03/09 11:31:52;;;;;;;18.20;2.58;;;12.00;99.90;;;;;;5035474;28;20069;-59
2022/03/09 11:34:41;;;;;;;18.40;3.67;;;12.10;99.90;;;;;;5009443;28;20114;-58
2022/03/09 11:37:20;;;;;;;14.57;2.70;;;12.10;99.90;;;;;;4984332;28;20027;-59
2022/03/09 11:40:10;;;;;;;13.38;2.83;;;12.30;99.90;;;;;;5019337;28;20061;-58
2022/03/09 11:42:44;;;;;;;16.50;3.47;;;12.30;99.90;;;;;;5017765;28;20030;-58
2022/03/09 11:45:14;;;;;;;11.85;2.53;;;12.20;99.90;;;;;;5025056;28;20026;-58
2022/03/09 11:48:14;;;;;;;16.65;2.45;;;12.20;99.90;;;;;;5018927;28;20073;-58
2022/03/09 11:50:47;;;;;;;15.18;2.80;;;12.20;99.90;;;;;;5005088;28;20030;-59
2022/03/09 11:53:15;;;;;;;15.48;3.22;;;12.30;99.90;;;;;;5019176;28;20040;-59
2022/03/09 11:55:42;;;;;;;18.73;3.13;;;12.30;99.90;;;;;;5002482;28;20038;-57
2022/03/09 11:58:13;;;;;;;15.82;2.55;;;12.20;99.90;;;;;;5001150;28;20050;-59
2022/03/09 12:01:02;;;;;;;13.70;2.60;;;12.10;99.90;;;;;;5024405;28;20057;-59
2022/03/09 12:03:40;;;;;;;15.73;3.28;;;12.10;99.60;;;;;;5017588;28;20050;-59
2022/03/09 12:06:41;;;;;;;17.52;2.58;;;12.10;99.80;;;;;;5018036;28;20054;-59
2022/03/09 12:09:09;;;;;;;9.68;2.88;;;12.00;99.10;;;;;;4997219;28;20069;-59
2022/03/09 12:12:08;;;;;;;11.68;2.04;;;12.00;99.90;;;;;;4671713;28;10001220;-60
2022/03/09 12:15:08;;;;;;;11.05;2.17;;;12.00;99.80;;;;;;5014385;28;20038;-58
2022/03/09 12:17:43;;;;;;;11.82;2.92;;;12.00;99.70;;;;;;5016637;28;20042;-59
2022/03/09 12:20:29;;;;;;;17.35;2.63;;;12.10;99.90;;;;;;4999387;28;20042;-58
2022/03/09 12:22:56;;;;;;;6.85;1.65;;;12.10;99.90;;;;;;5015537;28;20105;-59
2022/03/09 12:25:48;;;;;;;12.43;2.25;;;12.10;99.60;;;;;;5015926;28;20038;-59
2022/03/09 12:28:24;;;;;;;14.13;3.80;;;12.20;99.50;;;;;;5016008;28;20105;-58
2022/03/09 12:30:52;;;;;;;9.80;2.63;;;12.20;99.90;;;;;;5014942;28;20038;-58
2022/03/09 12:33:31;;;;;;;10.82;2.22;;;12.30;99.90;;;;;;5018006;28;20038;-56
2022/03/09 12:36:12;;;;;;;8.43;2.25;;;12.30;98.90;;;;;;5014112;28;20049;-58
2022/03/09 12:38:58;;;;;;;13.57;2.38;;;12.30;99.20;;;;;;5030622;28;20030;-59
2022/03/09 12:41:37;;;;;;;11.10;1.90;;;12.30;99.30;;;;;;5017827;28;20039;-60
2022/03/09 12:44:06;;;;;;;12.80;1.98;;;12.20;99.80;;;;;;5015918;28;20125;-59
2022/03/09 12:46:34;;;;;;;17.15;2.45;;;12.40;99.90;;;;;;4984074;28;20058;-59
2022/03/09 12:49:13;;;;;;;15.13;2.10;;;12.50;99.90;;;;;;5000166;28;20057;-59
2022/03/09 12:51:50;;;;;;;9.82;2.28;;;12.40;99.50;;;;;;5017601;28;20039;-59
2022/03/09 12:54:33;;;;;;;17.55;3.13;;;12.40;99.70;;;;;;5031318;28;20026;-59